createdAt,value
2023-04-22T00:02:12.575Z,99.82
2023-04-22T00:05:14.037Z,99.98
2023-04-22T00:08:16.382Z,100.00
2023-04-22T00:11:16.435Z,100.00
2023-04-22T00:14:16.606Z,100.00
2023-04-22T00:17:16.404Z,100.00
2023-04-22T00:20:17.443Z,100.00
2023-04-22T00:23:17.422Z,100.00
2023-04-22T00:26:17.424Z,100.00
2023-04-22T00:29:17.399Z,100.00
2023-04-22T00:32:17.487Z,100.00
2023-04-22T00:35:17.430Z,100.00
2023-04-22T00:38:17.480Z,100.00
2023-04-22T00:41:17.465Z,100.00
2023-04-22T00:44:17.480Z,100.00
2023-04-22T00:47:17.578Z,100.00
2023-04-22T00:50:18.472Z,100.00
2023-04-22T00:53:18.532Z,100.00
2023-04-22T00:56:18.423Z,100.00
2023-04-22T00:59:18.801Z,100.00
2023-04-22T01:02:18.621Z,100.00
2023-04-22T01:05:18.473Z,100.00
2023-04-22T01:08:18.561Z,100.00
2023-04-22T01:11:18.524Z,100.00
2023-04-22T01:14:19.545Z,100.00
2023-04-22T01:17:20.560Z,100.00
2023-04-22T01:20:20.541Z,100.00
2023-04-22T01:23:22.521Z,100.00
2023-04-22T01:26:22.585Z,99.96
2023-04-22T01:29:22.776Z,99.58
2023-04-22T01:32:22.577Z,98.98
2023-04-22T01:35:22.595Z,98.67
2023-04-22T01:38:23.607Z,98.32
2023-04-22T01:41:23.573Z,97.96
2023-04-22T01:44:25.567Z,97.66
2023-04-22T01:47:25.558Z,97.29
2023-04-22T01:50:25.587Z,96.94
2023-04-22T01:53:25.555Z,96.74
2023-04-22T01:56:25.635Z,96.50
2023-04-22T01:59:25.736Z,96.24
2023-04-22T02:02:25.737Z,96.06
2023-04-22T02:05:25.709Z,95.80
2023-04-22T02:08:25.626Z,95.86
2023-04-22T02:11:27.647Z,95.71
2023-04-22T02:14:27.642Z,95.73
2023-04-22T02:17:29.630Z,95.72
2023-04-22T02:20:29.651Z,95.74
2023-04-22T02:23:31.638Z,95.59
2023-04-22T02:26:31.647Z,95.48
2023-04-22T02:29:31.618Z,95.13
2023-04-22T02:32:32.719Z,94.91
2023-04-22T02:35:32.802Z,94.73
2023-04-22T02:38:32.693Z,94.53
2023-04-22T02:41:33.646Z,94.23
2023-04-22T02:44:27.756Z,94.10
2023-04-22T02:47:27.706Z,93.93
2023-04-22T02:50:27.678Z,93.62
2023-04-22T02:53:29.683Z,93.51
2023-04-22T02:56:29.697Z,93.33
2023-04-22T02:59:30.682Z,93.27
2023-04-22T03:02:30.830Z,92.96
2023-04-22T03:05:37.676Z,92.89
2023-04-22T03:08:37.721Z,92.78
2023-04-22T03:11:40.225Z,92.69
2023-04-22T03:14:40.721Z,92.61
2023-04-22T03:17:40.778Z,92.46
2023-04-22T03:20:40.792Z,92.47
2023-04-22T03:23:40.746Z,92.29
2023-04-22T03:26:40.778Z,92.09
2023-04-22T03:29:40.930Z,91.91
2023-04-22T03:32:41.822Z,91.86
2023-04-22T03:35:50.750Z,91.80
2023-04-22T03:38:50.746Z,91.66
2023-04-22T03:41:52.722Z,91.27
2023-04-22T03:44:53.789Z,90.77
2023-04-22T03:47:54.810Z,90.20
2023-04-22T03:51:01.767Z,89.51
2023-04-22T03:54:02.879Z,88.97
2023-04-22T03:57:05.789Z,88.42
2023-04-22T04:00:06.767Z,87.68
2023-04-22T04:03:11.003Z,87.01
2023-04-22T04:06:05.047Z,86.53
2023-04-22T04:09:04.852Z,86.35
2023-04-22T04:12:05.787Z,86.00
2023-04-22T04:15:08.809Z,85.19
2023-04-22T04:18:08.899Z,84.36
2023-04-22T04:21:09.857Z,83.56
2023-04-22T04:24:13.890Z,82.73
2023-04-22T04:27:14.804Z,82.20
2023-04-22T04:30:17.859Z,81.78
2023-04-22T04:33:22.849Z,81.16
2023-04-22T04:36:22.871Z,81.07
2023-04-22T04:39:34.861Z,80.64
2023-04-22T04:42:36.857Z,80.08
2023-04-22T04:45:34.868Z,78.99
2023-04-22T04:48:20.938Z,78.15
2023-04-22T04:51:25.915Z,76.60
2023-04-22T04:54:25.888Z,75.55
2023-04-22T04:57:25.940Z,74.39
2023-04-22T05:00:25.984Z,73.15
2023-04-22T05:03:26.079Z,72.21
2023-04-22T05:06:25.924Z,71.67
2023-04-22T05:09:28.948Z,71.49
2023-04-22T05:12:28.928Z,70.87
2023-04-22T05:15:28.975Z,70.43
2023-04-22T05:18:28.914Z,70.10
2023-04-22T05:21:31.987Z,69.33
2023-04-22T05:24:31.896Z,67.50
2023-04-22T05:27:31.971Z,64.23
2023-04-22T05:30:32.010Z,60.31
2023-04-22T05:33:24.969Z,57.62
2023-04-22T05:36:04.168Z,54.62
2023-04-22T05:38:50.060Z,53.43
2023-04-22T05:41:36.039Z,51.82
2023-04-22T05:44:36.006Z,50.33
2023-04-22T05:47:36.114Z,48.60
2023-04-22T05:50:35.994Z,46.91
2023-04-22T05:53:37.009Z,45.88
2023-04-22T05:56:38.106Z,45.10
2023-04-22T05:59:38.319Z,44.36
2023-04-22T06:02:39.166Z,43.95
2023-04-22T06:05:39.058Z,43.57
2023-04-22T06:08:40.027Z,42.96
2023-04-22T06:11:40.032Z,42.33
2023-04-22T06:14:40.049Z,42.01
2023-04-22T06:17:40.070Z,41.77
2023-04-22T06:20:42.029Z,41.34
2023-04-22T06:23:43.036Z,41.51
2023-04-22T06:26:44.074Z,40.55
2023-04-22T06:29:44.105Z,40.08
2023-04-22T06:32:44.235Z,39.60
2023-04-22T06:35:44.067Z,39.70
2023-04-22T06:38:44.110Z,39.32
2023-04-22T06:41:53.088Z,39.13
2023-04-22T06:45:19.129Z,39.37
2023-04-22T06:48:37.160Z,39.83
2023-04-22T06:51:55.154Z,39.93
2023-04-22T06:54:56.185Z,40.40
2023-04-22T06:58:24.162Z,41.12
2023-04-22T07:01:25.256Z,41.75
2023-04-22T07:04:25.256Z,42.04
2023-04-22T07:07:27.446Z,42.73
2023-04-22T07:10:27.259Z,43.39
2023-04-22T07:13:53.200Z,43.79
2023-04-22T07:16:53.425Z,44.39
2023-04-22T07:19:53.191Z,44.82
2023-04-22T07:22:53.375Z,45.18
2023-04-22T07:25:53.276Z,45.41
2023-04-22T07:28:54.222Z,45.29
2023-04-22T07:31:55.328Z,45.12
2023-04-22T07:34:56.433Z,45.47
2023-04-22T07:37:56.372Z,45.43
2023-04-22T07:40:57.220Z,45.27
2023-04-22T07:43:59.521Z,45.36
2023-04-22T07:47:00.746Z,45.45
2023-04-22T07:50:01.478Z,45.43
2023-04-22T07:53:02.569Z,45.58
2023-04-22T07:56:03.310Z,45.58
2023-04-22T07:59:03.264Z,45.40
2023-04-22T08:02:03.340Z,45.08
2023-04-22T08:05:03.283Z,44.76
2023-04-22T08:08:04.271Z,43.77
2023-04-22T08:11:04.269Z,43.37
2023-04-22T08:14:04.285Z,43.10
2023-04-22T08:17:06.343Z,43.00
2023-04-22T08:20:07.939Z,42.41
2023-04-22T08:23:08.290Z,41.40
2023-04-22T08:26:08.635Z,40.37
2023-04-22T08:29:08.279Z,39.22
2023-04-22T08:32:08.327Z,38.54
2023-04-22T08:35:09.312Z,38.18
2023-04-22T08:38:09.371Z,36.95
2023-04-22T08:41:09.351Z,36.41
2023-04-22T08:44:09.340Z,36.18
2023-04-22T08:47:09.511Z,36.08
2023-04-22T08:50:09.349Z,35.55
2023-04-22T08:53:09.410Z,34.68
2023-04-22T08:56:11.462Z,34.17
2023-04-22T08:59:14.354Z,33.43
2023-04-22T09:02:14.527Z,32.37
2023-04-22T09:05:14.451Z,31.12
2023-04-22T09:08:14.588Z,30.00
2023-04-22T09:11:10.478Z,29.67
2023-04-22T09:13:58.428Z,29.09
2023-04-22T09:17:01.441Z,28.75
2023-04-22T09:20:11.376Z,28.08
2023-04-22T09:23:11.418Z,27.77
2023-04-22T09:26:11.438Z,28.09
2023-04-22T09:29:15.434Z,27.70
2023-04-22T09:32:21.542Z,27.27
2023-04-22T09:35:21.523Z,27.05
2023-04-22T09:38:22.458Z,26.62
2023-04-22T09:41:22.427Z,26.14
2023-04-22T09:44:17.441Z,25.73
2023-04-22T09:47:17.511Z,24.76
2023-04-22T09:50:17.494Z,24.34
2023-04-22T09:53:20.483Z,23.91
2023-04-22T09:56:20.443Z,23.29
2023-04-22T09:59:21.996Z,23.02
2023-04-22T10:02:22.501Z,22.64
2023-04-22T10:05:24.194Z,22.47
2023-04-22T10:08:24.504Z,22.15
2023-04-22T10:11:24.629Z,21.74
2023-04-22T10:14:24.548Z,21.54
2023-04-22T10:17:24.493Z,21.52
2023-04-22T10:20:25.486Z,21.25
2023-04-22T10:23:28.532Z,21.38
2023-04-22T10:26:48.543Z,21.34
2023-04-22T10:29:49.518Z,21.53
2023-04-22T10:32:50.760Z,21.46
2023-04-22T10:35:50.618Z,21.01
2023-04-22T10:38:51.653Z,20.70
2023-04-22T10:41:44.662Z,21.26
2023-04-22T10:44:57.626Z,20.81
2023-04-22T10:47:58.676Z,20.84
2023-04-22T10:51:00.640Z,21.53
2023-04-22T10:54:00.582Z,22.18
2023-04-22T10:57:18.588Z,22.33
2023-04-22T11:00:41.759Z,22.53
2023-04-22T11:03:47.667Z,23.37
2023-04-22T11:06:47.701Z,22.55
2023-04-22T11:09:47.620Z,22.35
2023-04-22T11:12:50.598Z,22.19
2023-04-22T11:15:54.652Z,22.32
2023-04-22T11:18:54.607Z,22.56
2023-04-22T11:21:56.692Z,22.34
2023-04-22T11:25:06.677Z,22.20
2023-04-22T11:28:06.640Z,21.84
2023-04-22T11:31:06.663Z,22.42
2023-04-22T11:34:06.623Z,23.23
2023-04-22T11:37:06.696Z,23.93
2023-04-22T11:43:09.700Z,24.52
2023-04-22T11:46:10.704Z,24.98
2023-04-22T11:49:28.720Z,25.32
2023-04-22T11:52:28.724Z,25.38
2023-04-22T11:55:21.681Z,25.10
2023-04-22T11:58:02.899Z,25.01
2023-04-22T12:00:51.685Z,25.33
2023-04-22T12:03:38.902Z,24.72
2023-04-22T12:06:38.783Z,23.80
2023-04-22T12:09:39.948Z,23.21
2023-04-22T12:12:33.784Z,23.42
2023-04-22T12:15:21.699Z,23.71
2023-04-22T12:18:21.735Z,23.17
2023-04-22T12:21:21.817Z,22.09
2023-04-22T12:24:21.730Z,22.23
2023-04-22T12:27:21.744Z,22.24
2023-04-22T12:30:21.762Z,22.18
2023-04-22T12:33:21.742Z,21.70
2023-04-22T12:36:22.937Z,21.06
2023-04-22T12:39:23.806Z,20.70
2023-04-22T12:42:23.780Z,20.95
2023-04-22T12:45:23.768Z,21.02
2023-04-22T12:48:16.793Z,20.56
2023-04-22T12:50:56.727Z,20.89
2023-04-22T12:53:43.857Z,20.95
2023-04-22T12:56:24.167Z,20.83
2023-04-22T12:59:10.230Z,20.75
2023-04-22T13:01:58.066Z,20.95
2023-04-22T13:04:51.833Z,20.53
2023-04-22T13:07:38.849Z,20.47
2023-04-22T13:10:38.829Z,20.15
2023-04-22T13:13:47.809Z,20.24
2023-04-22T13:16:47.846Z,19.84
2023-04-22T13:19:47.829Z,19.82
2023-04-22T13:22:47.905Z,20.12
2023-04-22T13:25:48.865Z,20.41
2023-04-22T13:28:50.862Z,20.36
2023-04-22T13:31:51.877Z,20.60
2023-04-22T13:34:45.888Z,21.04
2023-04-22T13:37:25.965Z,20.86
2023-04-22T13:40:11.855Z,20.74
2023-04-22T13:43:11.895Z,21.12
2023-04-22T13:46:12.004Z,21.02
2023-04-22T13:49:11.922Z,20.81
2023-04-22T13:52:11.947Z,21.06
2023-04-22T13:55:12.115Z,21.70
2023-04-22T13:58:11.907Z,21.63
2023-04-22T14:01:11.980Z,21.46
2023-04-22T14:04:05.062Z,21.34
2023-04-22T14:07:04.925Z,21.67
2023-04-22T14:10:04.904Z,22.15
2023-04-22T14:13:04.977Z,22.14
2023-04-22T14:16:05.060Z,21.61
2023-04-22T14:19:04.937Z,21.81
2023-04-22T14:22:05.936Z,22.09
2023-04-22T14:25:05.956Z,22.36
2023-04-22T14:27:59.090Z,22.67
2023-04-22T14:30:59.010Z,23.03
2023-04-22T14:33:58.957Z,23.13
2023-04-22T14:36:59.186Z,23.31
2023-04-22T14:40:00.178Z,23.36
2023-04-22T14:43:00.939Z,23.62
2023-04-22T14:46:01.106Z,23.86
2023-04-22T14:49:00.980Z,23.93
2023-04-22T14:52:01.034Z,23.99
2023-04-22T14:55:08.805Z,24.39
2023-04-22T14:58:16.026Z,24.44
2023-04-22T15:01:17.093Z,24.42
2023-04-22T15:04:19.100Z,24.46
2023-04-22T15:07:19.030Z,24.55
2023-04-22T15:10:20.140Z,24.65
2023-04-22T15:13:20.069Z,24.71
2023-04-22T15:16:20.213Z,24.89
2023-04-22T15:19:20.108Z,25.10
2023-04-22T15:22:20.175Z,25.07
2023-04-22T15:25:20.036Z,25.09
2023-04-22T15:28:20.120Z,25.19
2023-04-22T15:31:22.088Z,25.37
2023-04-22T15:34:22.097Z,25.45
2023-04-22T15:37:23.458Z,25.48
2023-04-22T15:40:27.412Z,25.45
2023-04-22T15:43:27.117Z,25.59
2023-04-22T15:46:27.244Z,25.73
2023-04-22T15:49:27.127Z,25.83
2023-04-22T15:52:27.130Z,25.96
2023-04-22T15:55:27.090Z,26.30
2023-04-22T15:58:28.989Z,26.91
2023-04-22T16:01:31.149Z,27.58
2023-04-22T16:04:34.301Z,27.96
2023-04-22T16:07:34.145Z,28.04
2023-04-22T16:10:34.171Z,28.11
2023-04-22T16:13:34.142Z,28.34
2023-04-22T16:16:35.201Z,28.61
2023-04-22T16:19:35.141Z,28.94
2023-04-22T16:22:35.236Z,29.06
2023-04-22T16:25:35.332Z,29.34
2023-04-22T16:28:37.185Z,29.34
2023-04-22T16:31:37.247Z,29.61
2023-04-22T16:34:37.171Z,30.02
2023-04-22T16:37:37.184Z,30.30
2023-04-22T16:40:37.203Z,30.52
2023-04-22T16:43:39.082Z,30.85
2023-04-22T16:46:40.351Z,31.03
2023-04-22T16:49:40.654Z,31.41
2023-04-22T16:52:44.240Z,31.59
2023-04-22T16:55:44.239Z,31.80
2023-04-22T16:58:44.193Z,31.84
2023-04-22T17:01:47.308Z,31.93
2023-04-22T17:04:47.228Z,32.35
2023-04-22T17:07:47.359Z,32.52
2023-04-22T17:10:44.362Z,32.75
2023-04-22T17:13:45.526Z,33.10
2023-04-22T17:16:45.273Z,33.42
2023-04-22T17:19:45.293Z,33.60
2023-04-22T17:22:47.278Z,33.56
2023-04-22T17:25:48.277Z,33.67
2023-04-22T17:28:48.417Z,33.80
2023-04-22T17:31:48.375Z,34.04
2023-04-22T17:34:49.290Z,34.36
2023-04-22T17:37:50.414Z,34.68
2023-04-22T17:40:51.272Z,35.21
2023-04-22T17:43:51.330Z,35.43
2023-04-22T17:46:52.424Z,35.79
2023-04-22T17:49:52.378Z,35.94
2023-04-22T17:52:55.369Z,36.08
2023-04-22T17:55:56.464Z,36.30
2023-04-22T17:58:57.342Z,36.52
2023-04-22T18:01:59.632Z,36.58
2023-04-22T18:04:55.573Z,36.59
2023-04-22T18:07:55.365Z,36.76
2023-04-22T18:10:55.818Z,36.75
2023-04-22T18:13:57.370Z,36.98
2023-04-22T18:16:58.419Z,37.08
2023-04-22T18:20:14.003Z,37.22
2023-04-22T18:23:19.541Z,37.19
2023-04-22T18:26:19.356Z,37.48
2023-04-22T18:29:19.405Z,37.50
2023-04-22T18:32:19.470Z,37.47
2023-04-22T18:35:21.617Z,37.16
2023-04-22T18:38:21.393Z,37.18
2023-04-22T18:41:21.556Z,37.32
2023-04-22T18:44:21.437Z,37.59
2023-04-22T18:47:22.678Z,37.59
2023-04-22T18:50:22.493Z,37.68
2023-04-22T18:53:22.451Z,37.87
2023-04-22T18:56:22.702Z,37.92
2023-04-22T18:59:22.520Z,38.40
2023-04-22T19:02:23.605Z,38.77
2023-04-22T19:05:23.445Z,39.08
2023-04-22T19:08:23.551Z,39.57
2023-04-22T19:11:23.484Z,39.65
2023-04-22T19:14:24.487Z,39.34
2023-04-22T19:17:18.529Z,39.56
2023-04-22T19:20:04.597Z,40.62
2023-04-22T19:23:04.555Z,39.83
2023-04-22T19:26:04.587Z,39.98
2023-04-22T19:29:04.486Z,39.92
2023-04-22T19:32:04.556Z,40.15
2023-04-22T19:35:06.501Z,41.85
2023-04-22T19:38:08.687Z,42.34
2023-04-22T19:41:08.536Z,42.64
2023-04-22T19:44:08.547Z,42.90
2023-04-22T19:47:09.503Z,43.19
2023-04-22T19:50:09.516Z,43.36
2023-04-22T19:53:04.808Z,43.71
2023-04-22T19:56:04.882Z,44.12
2023-04-22T19:59:04.567Z,43.97
2023-04-22T20:02:08.775Z,44.11
2023-04-22T20:05:11.567Z,44.04
2023-04-22T20:08:11.546Z,44.05
2023-04-22T20:11:11.571Z,44.13
2023-04-22T20:14:13.560Z,44.17
2023-04-22T20:17:13.562Z,44.28
2023-04-22T20:20:14.614Z,44.36
2023-04-22T20:23:19.945Z,44.74
2023-04-22T20:26:19.655Z,45.03
2023-04-22T20:29:19.623Z,45.33
2023-04-22T20:32:19.661Z,45.92
2023-04-22T20:35:20.729Z,46.13
2023-04-22T20:38:21.672Z,46.30
2023-04-22T20:41:21.659Z,46.58
2023-04-22T20:44:24.705Z,46.66
2023-04-22T20:47:25.645Z,46.77
2023-04-22T20:50:28.814Z,47.03
2023-04-22T20:53:30.622Z,47.21
2023-04-22T20:56:31.745Z,47.49
2023-04-22T20:59:31.697Z,47.83
2023-04-22T21:02:32.872Z,47.86
2023-04-22T21:05:26.976Z,47.82
2023-04-22T21:08:32.642Z,47.69
2023-04-22T21:11:32.719Z,47.54
2023-04-22T21:14:32.697Z,47.58
2023-04-22T21:17:32.806Z,47.67
2023-04-22T21:20:33.741Z,47.72
2023-04-22T21:23:34.738Z,47.71
2023-04-22T21:26:34.679Z,47.74
2023-04-22T21:29:34.809Z,47.65
2023-04-22T21:32:35.731Z,47.63
2023-04-22T21:35:35.767Z,47.83
2023-04-22T21:38:35.698Z,47.99
2023-04-22T21:41:35.709Z,48.30
2023-04-22T21:44:35.755Z,48.48
2023-04-22T21:47:35.892Z,48.42
2023-04-22T21:50:36.902Z,48.46
2023-04-22T21:53:36.728Z,48.53
2023-04-22T21:56:39.802Z,48.66
2023-04-22T21:59:39.732Z,48.93
2023-04-22T22:02:41.807Z,49.22
2023-04-22T22:05:41.775Z,49.14
2023-04-22T22:08:41.867Z,49.14
2023-04-22T22:11:43.895Z,49.07
2023-04-22T22:14:44.793Z,49.21
2023-04-22T22:17:46.041Z,49.12
2023-04-22T22:20:45.833Z,49.27
2023-04-22T22:23:45.908Z,49.94
2023-04-22T22:26:46.850Z,50.35
2023-04-22T22:29:46.869Z,50.72
2023-04-22T22:32:49.338Z,50.79
2023-04-22T22:35:49.807Z,50.83
2023-04-22T22:38:50.871Z,50.45
2023-04-22T22:41:50.815Z,51.19
2023-04-22T22:44:53.858Z,51.24
2023-04-22T22:47:57.940Z,51.09
2023-04-22T22:50:57.839Z,51.23
2023-04-22T22:53:57.944Z,51.42
2023-04-22T22:56:57.983Z,51.10
2023-04-22T23:00:00.886Z,50.91
2023-04-22T23:03:01.999Z,50.72
2023-04-22T23:06:02.882Z,50.72
2023-04-22T23:09:02.945Z,50.55
2023-04-22T23:12:02.886Z,50.34
2023-04-22T23:15:02.988Z,50.45
2023-04-22T23:17:55.934Z,50.38
2023-04-22T23:20:55.940Z,50.46
2023-04-22T23:23:55.915Z,50.64
2023-04-22T23:26:55.954Z,50.74
2023-04-22T23:29:56.956Z,50.85
2023-04-22T23:32:57.988Z,51.00
2023-04-22T23:35:57.929Z,51.28
2023-04-22T23:38:58.172Z,51.19
2023-04-22T23:41:58.041Z,51.20
2023-04-22T23:44:57.990Z,51.38
2023-04-22T23:47:58.118Z,51.28
2023-04-22T23:50:58.002Z,51.29
2023-04-22T23:53:58.023Z,51.36
2023-04-22T23:56:58.093Z,51.40
2023-04-22T23:59:58.013Z,51.60
